Portada
METAR-TAF:

METAR-TAF

Aeroports :

Ahmedabad, Índia

latitud: 23-04N, longitud: 072-38E, altitud: 55 m

Observació

L'informe es va fer fa 40 minuts, a les 11:30 UTC
Vent 5 kt del Nord
Temperatura 34°C
Humitat 15%
Pressió 1012 hPa
Visibilitat: 6000 m

METAR: VAAH 181130Z 01005KT 6000 NSC 34/04 Q1012 NOSIG

Hora: 17:40 (12:10 UTC)

Pronòstic

L'informe es va fer fa 1 hora i 10 minuts, a les 11:00 UTC
Pronòstic vàlid del 18 a les 12 UTC al 18 a les 21 UTC
Vent 3 kt del Nord/Nord-Est
Visibilitat: 4000 m
fum
Evolucionant progressivament
l' 18 a les 13 UTC al 18 a les 15 UTC
Vent kt del Nord

TAF: VAAH 181100Z 1812/1821 02003KT 4000 FU NSC BECMG 1813/1815 00000KT

Observacions i pronòstics meteorològics de més de 4000 aeroports (METAR i TAF).

Les estacions disponibles són els punts grocs i vermells al mapa.

Posi el ratolí al punt desitjat per veure el nom de l'estació.

Feu clic per veure les observacions i els pronòstics meteorològics.

Per canviar el mapa: feu clic els botons verds amb una creu de color negre per apropar; al botó verd amb un guió per allunyar la imatge; o en les fletxes verdes per a mapes adjacents.


METAR-TAF: